Terminal Aerodrome Forecast
Issued by NWS

Home | Current Version | Previous Version | Text Only | Print | Product List | Glossary On
Versions: 1 2 3 4 5 6 7 8 9 10 11 12 13 14 15 16 17
000
FTUS41 KALY 232349 CCA
TAFPSF
TAF COR
KPSF 232349Z 2400/2424 14010G18KT P6SM SCT025 OVC035
      TEMPO 2400/2404 BKN025 OVC035
     FM240400 16012G20KT P6SM BKN015 OVC025
     FM240900 16014G22KT P6SM OVC015 PROB30 2409/2414 4SM -SHRA BR
      OVC015
     FM241400 17015G25KT 3SM SHRA BR OVC015=

USA.gov is the U.S. government's official web portal to all federal, state and local government web resources and services.